sensor_id;sensor_type;location;lat;lon;timestamp;pressure;altitude;pressure_sealevel;temperature;humidity
62418;BME280;48456;54.242;10.280;2023-06-22T00:21:26;101838.38;;;13.53;100.00
62418;BME280;48456;54.242;10.280;2023-06-22T00:31:28;101848.13;;;13.40;100.00
62418;BME280;48456;54.242;10.280;2023-06-22T00:34:04;101852.53;;;13.38;100.00
62418;BME280;48456;54.242;10.280;2023-06-22T00:36:53;101857.84;;;13.36;100.00
62418;BME280;48456;54.242;10.280;2023-06-22T00:39:25;101849.00;;;13.34;100.00
62418;BME280;48456;54.242;10.280;2023-06-22T00:44:46;101856.06;;;13.28;100.00
62418;BME280;48456;54.242;10.280;2023-06-22T00:47:16;101848.09;;;13.23;100.00
62418;BME280;48456;54.242;10.280;2023-06-22T00:53:53;101868.44;;;13.18;100.00
62418;BME280;48456;54.242;10.280;2023-06-22T00:56:48;101859.59;;;13.19;100.00
62418;BME280;48456;54.242;10.280;2023-06-22T00:59:29;101865.78;;;13.18;100.00
62418;BME280;48456;54.242;10.280;2023-06-22T01:02:08;101862.22;;;13.16;100.00
62418;BME280;48456;54.242;10.280;2023-06-22T01:04:50;101872.84;;;13.14;100.00
62418;BME280;48456;54.242;10.280;2023-06-22T01:32:11;101863.00;;;12.76;100.00
62418;BME280;48456;54.242;10.280;2023-06-22T01:35:10;101872.78;;;12.78;100.00
62418;BME280;48456;54.242;10.280;2023-06-22T01:41:12;101872.81;;;12.89;100.00
62418;BME280;48456;54.242;10.280;2023-06-22T01:43:42;101859.53;;;12.88;100.00
62418;BME280;48456;54.242;10.280;2023-06-22T01:46:36;101853.31;;;12.82;100.00
62418;BME280;48456;54.242;10.280;2023-06-22T01:49:15;101858.59;;;12.78;100.00
62418;BME280;48456;54.242;10.280;2023-06-22T01:52:18;101863.91;;;12.79;100.00
62418;BME280;48456;54.242;10.280;2023-06-22T01:54:50;101860.34;;;12.76;100.00
62418;BME280;48456;54.242;10.280;2023-06-22T01:57:19;101864.75;;;12.70;100.00
62418;BME280;48456;54.242;10.280;2023-06-22T02:02:39;101866.50;;;12.65;100.00
62418;BME280;48456;54.242;10.280;2023-06-22T02:05:52;101870.06;;;12.66;100.00
62418;BME280;48456;54.242;10.280;2023-06-22T02:24:48;101869.94;;;12.41;100.00
62418;BME280;48456;54.242;10.280;2023-06-22T02:34:32;101871.69;;;12.36;100.00
62418;BME280;48456;54.242;10.280;2023-06-22T02:37:26;101864.56;;;12.33;100.00
62418;BME280;48456;54.242;10.280;2023-06-22T02:45:47;101877.00;;;12.34;100.00
62418;BME280;48456;54.242;10.280;2023-06-22T02:57:43;101876.06;;;12.27;100.00
62418;BME280;48456;54.242;10.280;2023-06-22T03:03:40;101873.38;;;12.24;100.00
62418;BME280;48456;54.242;10.280;2023-06-22T03:12:23;101869.84;;;12.24;100.00
62418;BME280;48456;54.242;10.280;2023-06-22T03:15:18;101857.50;;;12.26;100.00
62418;BME280;48456;54.242;10.280;2023-06-22T03:21:17;101870.75;;;12.27;100.00
62418;BME280;48456;54.242;10.280;2023-06-22T03:24:02;101869.91;;;12.31;100.00
62418;BME280;48456;54.242;10.280;2023-06-22T03:51:02;101885.13;;;12.68;100.00
62418;BME280;48456;54.242;10.280;2023-06-22T03:53:59;101878.94;;;12.72;100.00
62418;BME280;48456;54.242;10.280;2023-06-22T03:59:42;101894.91;;;12.83;100.00
62418;BME280;48456;54.242;10.280;2023-06-22T04:11:40;101902.03;;;12.97;100.00
62418;BME280;48456;54.242;10.280;2023-06-22T04:14:25;101910.03;;;13.05;100.00
62418;BME280;48456;54.242;10.280;2023-06-22T04:24:02;101899.47;;;13.22;100.00
62418;BME280;48456;54.242;10.280;2023-06-22T04:33:15;101905.69;;;13.46;100.00
62418;BME280;48456;54.242;10.280;2023-06-22T04:35:41;101905.72;;;13.50;100.00
62418;BME280;48456;54.242;10.280;2023-06-22T04:38:08;101897.75;;;13.57;100.00
62418;BME280;48456;54.242;10.280;2023-06-22T04:40:34;101899.53;;;13.67;100.00
62418;BME280;48456;54.242;10.280;2023-06-22T04:43:01;101890.66;;;13.79;100.00
62418;BME280;48456;54.242;10.280;2023-06-22T04:45:28;101888.88;;;13.86;100.00
62418;BME280;48456;54.242;10.280;2023-06-22T04:47:55;101897.75;;;13.99;100.00
62418;BME280;48456;54.242;10.280;2023-06-22T04:50:22;101898.63;;;14.20;100.00
62418;BME280;48456;54.242;10.280;2023-06-22T04:52:50;101890.63;;;14.34;100.00
62418;BME280;48456;54.242;10.280;2023-06-22T04:55:19;101900.34;;;14.41;100.00
62418;BME280;48456;54.242;10.280;2023-06-22T04:58:04;101901.19;;;14.49;100.00
62418;BME280;48456;54.242;10.280;2023-06-22T05:00:35;101909.16;;;14.63;100.00
62418;BME280;48456;54.242;10.280;2023-06-22T05:03:18;101909.09;;;14.76;100.00
62418;BME280;48456;54.242;10.280;2023-06-22T05:05:46;101899.28;;;14.90;100.00
62418;BME280;48456;54.242;10.280;2023-06-22T05:08:13;101903.66;;;15.09;100.00
62418;BME280;48456;54.242;10.280;2023-06-22T05:10:52;101902.66;;;15.27;100.00
62418;BME280;48456;54.242;10.280;2023-06-22T05:13:31;101897.19;;;15.45;100.00
62418;BME280;48456;54.242;10.280;2023-06-22T05:15:58;101905.19;;;15.49;100.00
62418;BME280;48456;54.242;10.280;2023-06-22T05:18:28;101900.66;;;15.57;100.00
62418;BME280;48456;54.242;10.280;2023-06-22T05:20:55;101906.81;;;15.70;100.00
62418;BME280;48456;54.242;10.280;2023-06-22T05:23:22;101900.41;;;15.87;100.00
62418;BME280;48456;54.242;10.280;2023-06-22T05:25:48;101906.44;;;16.12;100.00
62418;BME280;48456;54.242;10.280;2023-06-22T05:28:15;101895.59;;;16.29;100.00
62418;BME280;48456;54.242;10.280;2023-06-22T05:30:41;101895.50;;;16.40;100.00
62418;BME280;48456;54.242;10.280;2023-06-22T05:33:08;101898.06;;;16.48;100.00
62418;BME280;48456;54.242;10.280;2023-06-22T05:35:34;101901.53;;;16.58;100.00
62418;BME280;48456;54.242;10.280;2023-06-22T05:38:00;101899.53;;;16.74;100.00
62418;BME280;48456;54.242;10.280;2023-06-22T05:40:27;101895.81;;;16.86;100.00
62418;BME280;48456;54.242;10.280;2023-06-22T05:42:54;101898.28;;;17.06;100.00
62418;BME280;48456;54.242;10.280;2023-06-22T05:45:20;101890.03;;;17.19;100.00
62418;BME280;48456;54.242;10.280;2023-06-22T05:47:47;101897.09;;;17.24;100.00
62418;BME280;48456;54.242;10.280;2023-06-22T05:50:13;101898.81;;;17.30;100.00
62418;BME280;48456;54.242;10.280;2023-06-22T05:52:39;101903.22;;;17.33;100.00
62418;BME280;48456;54.242;10.280;2023-06-22T05:55:06;101906.66;;;17.41;100.00
62418;BME280;48456;54.242;10.280;2023-06-22T05:57:32;101903.75;;;17.57;100.00
62418;BME280;48456;54.242;10.280;2023-06-22T05:59:59;101908.13;;;17.62;100.00
62418;BME280;48456;54.242;10.280;2023-06-22T06:02:25;101899.91;;;17.75;100.00
62418;BME280;48456;54.242;10.280;2023-06-22T06:04:52;101890.56;;;17.98;100.00
62418;BME280;48456;54.242;10.280;2023-06-22T06:07:18;101896.31;;;18.26;100.00
62418;BME280;48456;54.242;10.280;2023-06-22T06:09:45;101898.53;;;18.51;100.00
62418;BME280;48456;54.242;10.280;2023-06-22T06:12:11;101897.22;;;18.71;100.00
62418;BME280;48456;54.242;10.280;2023-06-22T06:14:37;101895.34;;;18.76;100.00
62418;BME280;48456;54.242;10.280;2023-06-22T06:17:04;101886.16;;;18.87;100.00
62418;BME280;48456;54.242;10.280;2023-06-22T06:19:30;101882.19;;;19.06;100.00
62418;BME280;48456;54.242;10.280;2023-06-22T06:21:57;101890.06;;;19.14;100.00
62418;BME280;48456;54.242;10.280;2023-06-22T06:24:23;101878.38;;;19.17;100.00
62418;BME280;48456;54.242;10.280;2023-06-22T06:26:50;101879.94;;;19.27;100.00
62418;BME280;48456;54.242;10.280;2023-06-22T06:29:16;101875.91;;;19.47;100.00
62418;BME280;48456;54.242;10.280;2023-06-22T06:31:43;101867.34;;;19.67;100.00
62418;BME280;48456;54.242;10.280;2023-06-22T06:34:09;101871.47;;;19.81;100.00
62418;BME280;48456;54.242;10.280;2023-06-22T06:36:35;101866.59;;;19.95;100.00
62418;BME280;48456;54.242;10.280;2023-06-22T06:39:02;101866.59;;;19.95;100.00
62418;BME280;48456;54.242;10.280;2023-06-22T06:41:29;101875.66;;;20.26;100.00
62418;BME280;48456;54.242;10.280;2023-06-22T06:43:56;101872.81;;;20.32;100.00
62418;BME280;48456;54.242;10.280;2023-06-22T06:46:22;101875.34;;;20.37;100.00
62418;BME280;48456;54.242;10.280;2023-06-22T06:48:49;101870.19;;;20.29;100.00
62418;BME280;48456;54.242;10.280;2023-06-22T06:51:15;101880.09;;;20.27;100.00
62418;BME280;48456;54.242;10.280;2023-06-22T06:53:43;101878.38;;;20.56;100.00
62418;BME280;48456;54.242;10.280;2023-06-22T06:56:10;101871.72;;;20.70;100.00
62418;BME280;48456;54.242;10.280;2023-06-22T06:58:37;101876.25;;;20.68;100.00
62418;BME280;48456;54.242;10.280;2023-06-22T07:01:03;101864.88;;;20.89;100.00
62418;BME280;48456;54.242;10.280;2023-06-22T07:03:30;101868.59;;;21.14;100.00
62418;BME280;48456;54.242;10.280;2023-06-22T07:05:56;101866.25;;;21.32;100.00
62418;BME280;48456;54.242;10.280;2023-06-22T07:08:22;101862.91;;;21.52;100.00
62418;BME280;48456;54.242;10.280;2023-06-22T07:10:49;101865.47;;;21.55;100.00
62418;BME280;48456;54.242;10.280;2023-06-22T07:13:15;101853.81;;;21.56;100.00
62418;BME280;48456;54.242;10.280;2023-06-22T07:15:42;101859.84;;;21.63;100.00
62418;BME280;48456;54.242;10.280;2023-06-22T07:18:08;101856.06;;;21.68;100.00
62418;BME280;48456;54.242;10.280;2023-06-22T07:20:35;101863.31;;;21.66;100.00
62418;BME280;48456;54.242;10.280;2023-06-22T07:23:01;101858.47;;;21.78;100.00
62418;BME280;48456;54.242;10.280;2023-06-22T07:25:28;101854.78;;;21.80;100.00
62418;BME280;48456;54.242;10.280;2023-06-22T07:28:04;101863.69;;;21.83;100.00
62418;BME280;48456;54.242;10.280;2023-06-22T07:30:31;101862.41;;;22.18;100.00
62418;BME280;48456;54.242;10.280;2023-06-22T07:32:59;101867.94;;;22.39;100.00
62418;BME280;48456;54.242;10.280;2023-06-22T07:35:30;101856.88;;;22.47;100.00
62418;BME280;48456;54.242;10.280;2023-06-22T07:37:56;101848.97;;;22.42;100.00
62418;BME280;48456;54.242;10.280;2023-06-22T07:40:23;101853.72;;;22.10;100.00
62418;BME280;48456;54.242;10.280;2023-06-22T07:42:49;101859.25;;;22.07;100.00
62418;BME280;48456;54.242;10.280;2023-06-22T07:45:17;101867.59;;;22.25;100.00
62418;BME280;48456;54.242;10.280;2023-06-22T07:47:44;101867.66;;;22.47;100.00
62418;BME280;48456;54.242;10.280;2023-06-22T07:50:10;101861.63;;;22.40;100.00
62418;BME280;48456;54.242;10.280;2023-06-22T07:52:37;101866.81;;;22.70;100.00
62418;BME280;48456;54.242;10.280;2023-06-22T07:55:04;101862.63;;;22.85;100.00
62418;BME280;48456;54.242;10.280;2023-06-22T07:57:30;101862.13;;;22.76;100.00
62418;BME280;48456;54.242;10.280;2023-06-22T08:00:02;101856.59;;;22.79;100.00
62418;BME280;48456;54.242;10.280;2023-06-22T08:02:30;101856.47;;;22.82;100.00
62418;BME280;48456;54.242;10.280;2023-06-22T08:04:57;101863.19;;;22.94;100.00
62418;BME280;48456;54.242;10.280;2023-06-22T08:07:36;101853.66;;;23.30;100.00
62418;BME280;48456;54.242;10.280;2023-06-22T08:10:04;101861.28;;;23.42;100.00
62418;BME280;48456;54.242;10.280;2023-06-22T08:12:31;101861.44;;;23.39;100.00
62418;BME280;48456;54.242;10.280;2023-06-22T08:14:57;101855.63;;;23.26;100.00
62418;BME280;48456;54.242;10.280;2023-06-22T08:17:24;101856.81;;;23.19;100.00
62418;BME280;48456;54.242;10.280;2023-06-22T08:19:51;101855.38;;;23.10;100.00
62418;BME280;48456;54.242;10.280;2023-06-22T08:22:17;101856.81;;;23.19;100.00
62418;BME280;48456;54.242;10.280;2023-06-22T08:24:44;101851.69;;;23.13;100.00
62418;BME280;48456;54.242;10.280;2023-06-22T08:27:10;101860.72;;;23.34;100.00
62418;BME280;48456;54.242;10.280;2023-06-22T08:29:42;101857.84;;;23.61;100.00
62418;BME280;48456;54.242;10.280;2023-06-22T08:32:09;101860.00;;;23.73;100.00
62418;BME280;48456;54.242;10.280;2023-06-22T08:34:36;101859.66;;;23.81;100.00
62418;BME280;48456;54.242;10.280;2023-06-22T08:37:02;101870.47;;;23.81;100.00
62418;BME280;48456;54.242;10.280;2023-06-22T08:39:32;101873.97;;;23.83;100.00
62418;BME280;48456;54.242;10.280;2023-06-22T08:42:01;101870.81;;;23.73;100.00
62418;BME280;48456;54.242;10.280;2023-06-22T08:44:28;101865.09;;;23.59;100.00
62418;BME280;48456;54.242;10.280;2023-06-22T08:46:54;101860.53;;;23.61;100.00
62418;BME280;48456;54.242;10.280;2023-06-22T08:49:20;101860.53;;;23.61;100.00
62418;BME280;48456;54.242;10.280;2023-06-22T08:51:47;101850.28;;;23.90;100.00
62418;BME280;48456;54.242;10.280;2023-06-22T08:54:15;101856.22;;;24.19;100.00
62418;BME280;48456;54.242;10.280;2023-06-22T08:56:41;101855.09;;;24.44;100.00
62418;BME280;48456;54.242;10.280;2023-06-22T08:59:10;101842.31;;;24.67;100.00
62418;BME280;48456;54.242;10.280;2023-06-22T09:01:37;101846.56;;;24.92;100.00
62418;BME280;48456;54.242;10.280;2023-06-22T09:04:03;101842.66;;;24.40;100.00
62418;BME280;48456;54.242;10.280;2023-06-22T09:06:31;101839.25;;;24.56;100.00
62418;BME280;48456;54.242;10.280;2023-06-22T09:08:58;101843.19;;;24.48;100.00
62418;BME280;48456;54.242;10.280;2023-06-22T09:11:27;101831.00;;;24.59;100.00
62418;BME280;48456;54.242;10.280;2023-06-22T09:13:53;101840.41;;;24.50;100.00
62418;BME280;48456;54.242;10.280;2023-06-22T09:16:20;101833.38;;;24.46;100.00
62418;BME280;48456;54.242;10.280;2023-06-22T09:18:47;101837.56;;;24.72;100.00
62418;BME280;48456;54.242;10.280;2023-06-22T09:21:13;101832.03;;;24.56;100.00
62418;BME280;48456;54.242;10.280;2023-06-22T09:23:40;101832.53;;;24.84;100.00
62418;BME280;48456;54.242;10.280;2023-06-22T09:26:06;101825.72;;;24.94;100.00
62418;BME280;48456;54.242;10.280;2023-06-22T09:28:34;101826.91;;;25.25;100.00
62418;BME280;48456;54.242;10.280;2023-06-22T09:31:00;101826.91;;;25.25;100.00
62418;BME280;48456;54.242;10.280;2023-06-22T09:33:26;101823.97;;;25.30;100.00
62418;BME280;48456;54.242;10.280;2023-06-22T09:35:53;101826.91;;;25.43;100.00
62418;BME280;48456;54.242;10.280;2023-06-22T09:38:19;101824.59;;;25.17;100.00
62418;BME280;48456;54.242;10.280;2023-06-22T09:40:46;101816.53;;;25.16;100.00
62418;BME280;48456;54.242;10.280;2023-06-22T09:43:12;101823.44;;;25.04;100.00
62418;BME280;48456;54.242;10.280;2023-06-22T09:45:39;101816.00;;;25.44;100.00
62418;BME280;48456;54.242;10.280;2023-06-22T09:48:06;101824.78;;;25.50;100.00
62418;BME280;48456;54.242;10.280;2023-06-22T09:50:32;101829.81;;;25.75;100.00
62418;BME280;48456;54.242;10.280;2023-06-22T09:52:59;101823.13;;;25.82;100.00
62418;BME280;48456;54.242;10.280;2023-06-22T09:55:25;101827.78;;;25.97;100.00
62418;BME280;48456;54.242;10.280;2023-06-22T09:57:52;101824.44;;;26.27;100.00
62418;BME280;48456;54.242;10.280;2023-06-22T10:00:19;101824.97;;;26.16;100.00
62418;BME280;48456;54.242;10.280;2023-06-22T10:02:46;101831.16;;;26.36;100.00
62418;BME280;48456;54.242;10.280;2023-06-22T10:05:13;101821.44;;;26.47;100.00
62418;BME280;48456;54.242;10.280;2023-06-22T10:07:39;101820.31;;;26.36;100.00
62418;BME280;48456;54.242;10.280;2023-06-22T10:10:09;101824.09;;;26.49;100.00
62418;BME280;48456;54.242;10.280;2023-06-22T10:12:36;101814.84;;;26.69;100.00
62418;BME280;48456;54.242;10.280;2023-06-22T10:15:03;101812.56;;;26.78;100.00
62418;BME280;48456;54.242;10.280;2023-06-22T10:17:30;101815.16;;;26.79;100.00
62418;BME280;48456;54.242;10.280;2023-06-22T10:19:56;101807.91;;;27.12;100.00
62418;BME280;48456;54.242;10.280;2023-06-22T10:22:22;101800.19;;;27.04;100.00
62418;BME280;48456;54.242;10.280;2023-06-22T10:24:49;101795.25;;;27.27;100.00
62418;BME280;48456;54.242;10.280;2023-06-22T10:27:15;101792.00;;;27.36;100.00
62418;BME280;48456;54.242;10.280;2023-06-22T10:29:42;101790.94;;;27.70;100.00
62418;BME280;48456;54.242;10.280;2023-06-22T10:32:09;101791.34;;;27.93;100.00
62418;BME280;48456;54.242;10.280;2023-06-22T10:34:35;101795.06;;;29.05;100.00
62418;BME280;48456;54.242;10.280;2023-06-22T10:37:01;101795.31;;;29.94;97.70
62418;BME280;48456;54.242;10.280;2023-06-22T10:39:28;101786.84;;;29.73;87.58
62418;BME280;48456;54.242;10.280;2023-06-22T10:41:54;101791.78;;;30.44;95.03
62418;BME280;48456;54.242;10.280;2023-06-22T10:44:22;101779.00;;;31.07;98.18
62418;BME280;48456;54.242;10.280;2023-06-22T10:46:48;101776.78;;;31.12;79.92
62418;BME280;48456;54.242;10.280;2023-06-22T10:49:15;101776.38;;;31.05;82.57
62418;BME280;48456;54.242;10.280;2023-06-22T10:51:41;101773.94;;;31.49;82.72
62418;BME280;48456;54.242;10.280;2023-06-22T10:54:08;101780.00;;;32.00;86.84
62418;BME280;48456;54.242;10.280;2023-06-22T10:56:34;101775.28;;;31.91;83.83
62418;BME280;48456;54.242;10.280;2023-06-22T10:59:00;101778.06;;;31.31;75.79
62418;BME280;48456;54.242;10.280;2023-06-22T11:01:28;101769.72;;;31.45;87.45
62418;BME280;48456;54.242;10.280;2023-06-22T11:04:02;101765.81;;;32.07;74.98
62418;BME280;48456;54.242;10.280;2023-06-22T11:06:28;101768.25;;;32.33;71.54
62418;BME280;48456;54.242;10.280;2023-06-22T11:08:55;101764.94;;;32.18;74.96
62418;BME280;48456;54.242;10.280;2023-06-22T11:11:37;101767.34;;;31.16;82.01
62418;BME280;48456;54.242;10.280;2023-06-22T11:14:04;101757.22;;;30.94;83.23
62418;BME280;48456;54.242;10.280;2023-06-22T11:16:30;101763.59;;;30.44;85.91
62418;BME280;48456;54.242;10.280;2023-06-22T11:18:56;101756.03;;;31.45;94.02
62418;BME280;48456;54.242;10.280;2023-06-22T11:21:23;101760.81;;;32.12;76.37
62418;BME280;48456;54.242;10.280;2023-06-22T11:23:50;101761.88;;;32.66;67.99
62418;BME280;48456;54.242;10.280;2023-06-22T11:26:16;101761.91;;;32.44;68.51
62418;BME280;48456;54.242;10.280;2023-06-22T11:28:43;101761.25;;;32.63;67.68
62418;BME280;48456;54.242;10.280;2023-06-22T11:31:09;101753.03;;;32.63;70.99
62418;BME280;48456;54.242;10.280;2023-06-22T11:33:51;101750.56;;;33.04;67.73
62418;BME280;48456;54.242;10.280;2023-06-22T11:36:17;101749.63;;;33.15;63.18
62418;BME280;48456;54.242;10.280;2023-06-22T11:38:44;101739.09;;;33.41;64.93
62418;BME280;48456;54.242;10.280;2023-06-22T11:41:10;101742.34;;;33.47;65.67
62418;BME280;48456;54.242;10.280;2023-06-22T11:43:37;101741.56;;;33.56;61.84
62418;BME280;48456;54.242;10.280;2023-06-22T11:46:03;101751.75;;;33.54;57.78
62418;BME280;48456;54.242;10.280;2023-06-22T11:48:30;101744.63;;;33.20;58.01
62418;BME280;48456;54.242;10.280;2023-06-22T11:50:56;101747.06;;;33.97;58.03
62418;BME280;48456;54.242;10.280;2023-06-22T11:53:25;101747.13;;;34.07;58.16
62418;BME280;48456;54.242;10.280;2023-06-22T11:55:53;101754.75;;;34.54;53.40
62418;BME280;48456;54.242;10.280;2023-06-22T11:58:20;101741.94;;;35.04;50.19
62418;BME280;48456;54.242;10.280;2023-06-22T12:00:47;101742.38;;;34.70;47.89
62418;BME280;48456;54.242;10.280;2023-06-22T12:03:17;101736.66;;;34.42;51.75
62418;BME280;48456;54.242;10.280;2023-06-22T12:05:44;101730.94;;;35.04;51.33
62418;BME280;48456;54.242;10.280;2023-06-22T12:08:10;101725.28;;;35.06;49.08
62418;BME280;48456;54.242;10.280;2023-06-22T12:10:38;101727.31;;;34.64;52.65
62418;BME280;48456;54.242;10.280;2023-06-22T12:13:04;101732.09;;;34.82;49.86
62418;BME280;48456;54.242;10.280;2023-06-22T12:15:31;101721.69;;;34.76;52.65
62418;BME280;48456;54.242;10.280;2023-06-22T12:17:57;101718.34;;;34.52;52.14
62418;BME280;48456;54.242;10.280;2023-06-22T12:20:24;101712.09;;;34.30;53.85
62418;BME280;48456;54.242;10.280;2023-06-22T12:22:51;101710.66;;;34.36;53.84
62418;BME280;48456;54.242;10.280;2023-06-22T12:25:18;101712.00;;;34.62;52.87
62418;BME280;48456;54.242;10.280;2023-06-22T12:27:45;101698.06;;;35.12;49.66
62418;BME280;48456;54.242;10.280;2023-06-22T12:30:11;101694.47;;;35.70;47.81
62418;BME280;48456;54.242;10.280;2023-06-22T12:32:38;101699.13;;;34.92;46.81
62418;BME280;48456;54.242;10.280;2023-06-22T12:35:04;101689.41;;;35.07;46.41
62418;BME280;48456;54.242;10.280;2023-06-22T12:37:31;101679.31;;;34.78;47.65
62418;BME280;48456;54.242;10.280;2023-06-22T12:39:58;101687.91;;;34.14;50.30
62418;BME280;48456;54.242;10.280;2023-06-22T12:42:25;101681.28;;;33.76;50.60
62418;BME280;48456;54.242;10.280;2023-06-22T12:44:52;101680.16;;;34.59;57.21
62418;BME280;48456;54.242;10.280;2023-06-22T12:47:20;101685.78;;;35.07;50.35
62418;BME280;48456;54.242;10.280;2023-06-22T12:49:46;101672.94;;;34.78;55.86
62418;BME280;48456;54.242;10.280;2023-06-22T12:52:13;101670.72;;;35.11;63.93
62418;BME280;48456;54.242;10.280;2023-06-22T12:54:39;101670.47;;;34.45;63.94
62418;BME280;48456;54.242;10.280;2023-06-22T12:57:20;101668.19;;;33.05;79.90
62418;BME280;48456;54.242;10.280;2023-06-22T12:59:46;101669.59;;;29.60;96.34
62418;BME280;48456;54.242;10.280;2023-06-22T13:02:13;101676.00;;;27.68;100.00
62418;BME280;48456;54.242;10.280;2023-06-22T13:04:40;101669.97;;;27.03;100.00
62418;BME280;48456;54.242;10.280;2023-06-22T13:07:06;101663.34;;;26.45;100.00
62418;BME280;48456;54.242;10.280;2023-06-22T13:09:47;101660.53;;;26.15;100.00
62418;BME280;48456;54.242;10.280;2023-06-22T13:12:17;101668.41;;;26.19;100.00
62418;BME280;48456;54.242;10.280;2023-06-22T13:14:46;101665.53;;;26.23;100.00
62418;BME280;48456;54.242;10.280;2023-06-22T13:17:13;101666.53;;;26.38;100.00
62418;BME280;48456;54.242;10.280;2023-06-22T13:19:40;101665.97;;;27.24;100.00
62418;BME280;48456;54.242;10.280;2023-06-22T13:22:29;101670.97;;;28.18;100.00
62418;BME280;48456;54.242;10.280;2023-06-22T13:24:56;101671.50;;;28.93;100.00
62418;BME280;48456;54.242;10.280;2023-06-22T13:27:23;101667.75;;;30.24;100.00
62418;BME280;48456;54.242;10.280;2023-06-22T13:29:50;101673.41;;;31.42;97.32
62418;BME280;48456;54.242;10.280;2023-06-22T13:32:16;101670.06;;;31.84;95.14
62418;BME280;48456;54.242;10.280;2023-06-22T13:35:02;101656.63;;;30.88;91.41
62418;BME280;48456;54.242;10.280;2023-06-22T13:37:29;101671.50;;;31.31;93.38
62418;BME280;48456;54.242;10.280;2023-06-22T13:39:55;101669.31;;;31.93;94.09
62418;BME280;48456;54.242;10.280;2023-06-22T13:42:22;101676.97;;;32.66;83.05
62418;BME280;48456;54.242;10.280;2023-06-22T13:44:48;101671.94;;;32.50;82.87
62418;BME280;48456;54.242;10.280;2023-06-22T13:47:15;101677.09;;;32.32;83.76
62418;BME280;48456;54.242;10.280;2023-06-22T13:49:42;101668.00;;;32.32;77.62
62418;BME280;48456;54.242;10.280;2023-06-22T13:52:08;101670.28;;;33.13;79.12
62418;BME280;48456;54.242;10.280;2023-06-22T13:54:36;101671.19;;;33.76;77.61
62418;BME280;48456;54.242;10.280;2023-06-22T13:57:03;101662.22;;;34.25;69.82
62418;BME280;48456;54.242;10.280;2023-06-22T13:59:29;101654.59;;;33.47;62.29
62418;BME280;48456;54.242;10.280;2023-06-22T14:01:56;101663.78;;;33.45;69.10
62418;BME280;48456;54.242;10.280;2023-06-22T14:04:23;101667.00;;;33.51;67.65
62418;BME280;48456;54.242;10.280;2023-06-22T14:06:49;101661.66;;;33.49;69.04
62418;BME280;48456;54.242;10.280;2023-06-22T14:09:16;101659.69;;;34.02;66.39
62418;BME280;48456;54.242;10.280;2023-06-22T14:11:42;101665.13;;;33.20;63.21
62418;BME280;48456;54.242;10.280;2023-06-22T14:14:09;101658.25;;;33.36;70.84
62418;BME280;48456;54.242;10.280;2023-06-22T14:16:35;101659.84;;;33.60;70.99
62418;BME280;48456;54.242;10.280;2023-06-22T14:19:01;101659.84;;;33.60;65.22
62418;BME280;48456;54.242;10.280;2023-06-22T14:21:28;101660.91;;;34.09;70.29
62418;BME280;48456;54.242;10.280;2023-06-22T14:23:54;101652.69;;;33.68;68.78
62418;BME280;48456;54.242;10.280;2023-06-22T14:26:21;101644.13;;;32.88;73.94
62418;BME280;48456;54.242;10.280;2023-06-22T14:28:48;101644.72;;;32.49;75.28
62418;BME280;48456;54.242;10.280;2023-06-22T14:31:17;101633.84;;;32.80;70.77
62418;BME280;48456;54.242;10.280;2023-06-22T14:33:45;101639.06;;;33.26;73.89
62418;BME280;48456;54.242;10.280;2023-06-22T14:36:12;101633.31;;;33.39;66.03
62418;BME280;48456;54.242;10.280;2023-06-22T14:38:38;101628.34;;;32.80;69.43
62418;BME280;48456;54.242;10.280;2023-06-22T14:41:04;101617.78;;;32.21;70.31
62418;BME280;48456;54.242;10.280;2023-06-22T14:43:43;101613.28;;;32.20;72.32
62418;BME280;48456;54.242;10.280;2023-06-22T14:46:09;101621.06;;;31.69;75.23
62418;BME280;48456;54.242;10.280;2023-06-22T14:48:36;101625.38;;;32.50;74.27
62418;BME280;48456;54.242;10.280;2023-06-22T14:51:02;101616.06;;;32.53;72.45
62418;BME280;48456;54.242;10.280;2023-06-22T14:53:29;101610.53;;;33.07;66.99
62418;BME280;48456;54.242;10.280;2023-06-22T14:55:55;101602.94;;;32.78;67.98
62418;BME280;48456;54.242;10.280;2023-06-22T14:58:24;101600.44;;;32.32;69.41
62418;BME280;48456;54.242;10.280;2023-06-22T15:00:51;101597.28;;;32.37;69.88
62418;BME280;48456;54.242;10.280;2023-06-22T15:03:18;101597.06;;;31.16;72.01
62418;BME280;48456;54.242;10.280;2023-06-22T15:05:48;101604.16;;;30.11;77.93
62418;BME280;48456;54.242;10.280;2023-06-22T15:08:15;101608.66;;;29.35;81.62
62418;BME280;48456;54.242;10.280;2023-06-22T15:10:43;101610.31;;;28.99;85.63
62418;BME280;48456;54.242;10.280;2023-06-22T15:13:09;101606.25;;;28.78;87.57
62418;BME280;48456;54.242;10.280;2023-06-22T15:15:36;101609.22;;;29.01;88.42
62418;BME280;48456;54.242;10.280;2023-06-22T15:18:02;101608.78;;;29.21;86.47
62418;BME280;48456;54.242;10.280;2023-06-22T15:20:29;101599.72;;;29.72;83.43
62418;BME280;48456;54.242;10.280;2023-06-22T15:22:56;101599.88;;;29.82;82.73
62418;BME280;48456;54.242;10.280;2023-06-22T15:25:23;101597.16;;;30.19;79.79
62418;BME280;48456;54.242;10.280;2023-06-22T15:27:49;101600.03;;;29.67;83.15
62418;BME280;48456;54.242;10.280;2023-06-22T15:30:16;101598.59;;;28.71;82.20